sensor_id;sensor_type;location;lat;lon;timestamp;pressure;altitude;pressure_sealevel;temperature;humidity
49611;BME280;35515;48.766;9.176;2023-02-20T00:01:31;99490.94;;;9.69;73.58
49611;BME280;35515;48.766;9.176;2023-02-20T00:03:57;99483.84;;;9.60;74.03
49611;BME280;35515;48.766;9.176;2023-02-20T00:06:24;99487.56;;;9.59;73.66
49611;BME280;35515;48.766;9.176;2023-02-20T00:08:50;99489.28;;;9.51;74.60
49611;BME280;35515;48.766;9.176;2023-02-20T00:11:17;99484.16;;;9.65;73.75
49611;BME280;35515;48.766;9.176;2023-02-20T00:13:45;99482.41;;;9.80;72.79
49611;BME280;35515;48.766;9.176;2023-02-20T00:16:12;99482.38;;;9.88;72.56
49611;BME280;35515;48.766;9.176;2023-02-20T00:18:38;99475.47;;;9.78;73.16
49611;BME280;35515;48.766;9.176;2023-02-20T00:21:05;99479.31;;;9.92;72.30
49611;BME280;35515;48.766;9.176;2023-02-20T00:23:31;99465.13;;;9.90;72.56
49611;BME280;35515;48.766;9.176;2023-02-20T00:25:58;99466.16;;;9.80;73.20
49611;BME280;35515;48.766;9.176;2023-02-20T00:28:24;99472.63;;;9.71;73.57
49611;BME280;35515;48.766;9.176;2023-02-20T00:30:52;99464.34;;;9.73;73.30
49611;BME280;35515;48.766;9.176;2023-02-20T00:33:18;99460.84;;;9.56;74.50
49611;BME280;35515;48.766;9.176;2023-02-20T00:35:45;99471.16;;;9.60;74.07
49611;BME280;35515;48.766;9.176;2023-02-20T00:38:11;99467.63;;;9.51;74.80
49611;BME280;35515;48.766;9.176;2023-02-20T00:40:37;99468.69;;;9.82;73.86
49611;BME280;35515;48.766;9.176;2023-02-20T00:43:04;99473.03;;;9.51;74.89
49611;BME280;35515;48.766;9.176;2023-02-20T00:45:30;99493.50;;;9.54;74.61
49611;BME280;35515;48.766;9.176;2023-02-20T00:47:58;99494.72;;;9.43;74.93
49611;BME280;35515;48.766;9.176;2023-02-20T00:50:24;99494.72;;;9.43;74.96
49611;BME280;35515;48.766;9.176;2023-02-20T00:52:50;99499.94;;;9.45;74.89
49611;BME280;35515;48.766;9.176;2023-02-20T00:55:17;99492.59;;;9.70;73.94
49611;BME280;35515;48.766;9.176;2023-02-20T00:57:43;99500.53;;;9.71;73.83
49611;BME280;35515;48.766;9.176;2023-02-20T01:00:11;99490.94;;;9.69;73.39
49611;BME280;35515;48.766;9.176;2023-02-20T01:02:42;99492.63;;;9.62;73.55
49611;BME280;35515;48.766;9.176;2023-02-20T01:05:10;99492.66;;;9.53;74.10
49611;BME280;35515;48.766;9.176;2023-02-20T01:07:36;99490.31;;;9.42;74.40
49611;BME280;35515;48.766;9.176;2023-02-20T01:10:02;99494.69;;;9.51;73.63
49611;BME280;35515;48.766;9.176;2023-02-20T01:12:29;99495.13;;;9.71;72.76
49611;BME280;35515;48.766;9.176;2023-02-20T01:14:55;99494.66;;;9.68;73.22
49611;BME280;35515;48.766;9.176;2023-02-20T01:17:22;99506.16;;;9.62;73.15
49611;BME280;35515;48.766;9.176;2023-02-20T01:19:48;99504.84;;;9.49;73.74
49611;BME280;35515;48.766;9.176;2023-02-20T01:22:16;99501.09;;;9.59;73.39
49611;BME280;35515;48.766;9.176;2023-02-20T01:24:42;99487.53;;;9.67;72.69
49611;BME280;35515;48.766;9.176;2023-02-20T01:27:09;99479.63;;;9.49;72.86
49611;BME280;35515;48.766;9.176;2023-02-20T01:29:35;99478.81;;;9.48;72.79
49611;BME280;35515;48.766;9.176;2023-02-20T01:32:01;99475.13;;;9.33;73.55
49611;BME280;35515;48.766;9.176;2023-02-20T01:34:28;99483.56;;;9.38;73.11
49611;BME280;35515;48.766;9.176;2023-02-20T01:36:55;99475.78;;;9.43;73.04
49611;BME280;35515;48.766;9.176;2023-02-20T01:39:23;99474.97;;;9.34;73.39
49611;BME280;35515;48.766;9.176;2023-02-20T01:41:51;99477.53;;;9.28;73.71
49611;BME280;35515;48.766;9.176;2023-02-20T01:44:18;99482.59;;;9.31;73.44
49611;BME280;35515;48.766;9.176;2023-02-20T01:46:46;99468.38;;;9.37;72.69
49611;BME280;35515;48.766;9.176;2023-02-20T01:49:14;99477.22;;;9.14;73.66
49611;BME280;35515;48.766;9.176;2023-02-20T01:51:43;99469.22;;;9.37;72.41
49611;BME280;35515;48.766;9.176;2023-02-20T01:54:12;99465.16;;;9.33;72.16
49611;BME280;35515;48.766;9.176;2023-02-20T01:56:41;99471.75;;;9.39;71.93
49611;BME280;35515;48.766;9.176;2023-02-20T01:59:10;99463.31;;;9.26;72.18
49611;BME280;35515;48.766;9.176;2023-02-20T02:01:37;99464.53;;;9.15;72.58
49611;BME280;35515;48.766;9.176;2023-02-20T02:04:06;99458.81;;;8.85;73.60
49611;BME280;35515;48.766;9.176;2023-02-20T02:06:33;99454.63;;;8.74;74.15
49611;BME280;35515;48.766;9.176;2023-02-20T02:09:04;99461.22;;;8.88;73.62
49611;BME280;35515;48.766;9.176;2023-02-20T02:11:33;99462.34;;;9.02;72.60
49611;BME280;35515;48.766;9.176;2023-02-20T02:14:02;99465.06;;;9.02;72.88
49611;BME280;35515;48.766;9.176;2023-02-20T02:16:29;99461.34;;;9.03;73.15
49611;BME280;35515;48.766;9.176;2023-02-20T02:19:01;99453.72;;;9.15;71.92
49611;BME280;35515;48.766;9.176;2023-02-20T02:21:40;99455.97;;;8.95;72.74
49611;BME280;35515;48.766;9.176;2023-02-20T02:27:10;99438.72;;;8.87;73.19
49611;BME280;35515;48.766;9.176;2023-02-20T02:29:47;99441.44;;;8.71;74.28
49611;BME280;35515;48.766;9.176;2023-02-20T02:32:28;99443.31;;;8.70;75.02
49611;BME280;35515;48.766;9.176;2023-02-20T02:37:48;99446.19;;;8.69;75.51
49611;BME280;35515;48.766;9.176;2023-02-20T02:40:18;99443.81;;;8.74;75.68
49611;BME280;35515;48.766;9.176;2023-02-20T02:42:50;99451.59;;;8.77;75.54
49611;BME280;35515;48.766;9.176;2023-02-20T02:45:18;99444.47;;;8.84;75.23
49611;BME280;35515;48.766;9.176;2023-02-20T02:47:48;99447.03;;;8.78;75.52
49611;BME280;35515;48.766;9.176;2023-02-20T02:50:17;99444.50;;;8.76;75.66
49611;BME280;35515;48.766;9.176;2023-02-20T02:52:46;99446.19;;;8.69;75.50
49611;BME280;35515;48.766;9.176;2023-02-20T02:55:16;99432.69;;;8.69;75.96
49611;BME280;35515;48.766;9.176;2023-02-20T02:57:43;99431.50;;;8.63;75.90
49611;BME280;35515;48.766;9.176;2023-02-20T03:00:10;99435.53;;;8.59;76.34
49611;BME280;35515;48.766;9.176;2023-02-20T03:02:40;99438.25;;;8.59;76.17
49611;BME280;35515;48.766;9.176;2023-02-20T03:05:08;99432.84;;;8.67;76.07
49611;BME280;35515;48.766;9.176;2023-02-20T03:07:36;99432.00;;;8.67;76.01
49611;BME280;35515;48.766;9.176;2023-02-20T03:10:06;99438.75;;;8.79;75.30
49611;BME280;35515;48.766;9.176;2023-02-20T03:12:34;99432.00;;;8.59;76.81
49611;BME280;35515;48.766;9.176;2023-02-20T03:15:02;99432.00;;;8.67;76.05
49611;BME280;35515;48.766;9.176;2023-02-20T03:17:49;99430.31;;;8.66;76.03
49611;BME280;35515;48.766;9.176;2023-02-20T03:20:18;99423.69;;;8.93;75.32
49611;BME280;35515;48.766;9.176;2023-02-20T03:22:46;99435.00;;;8.89;75.32
49611;BME280;35515;48.766;9.176;2023-02-20T03:25:15;99428.28;;;8.76;75.87
49611;BME280;35515;48.766;9.176;2023-02-20T03:27:45;99428.25;;;8.84;75.57
49611;BME280;35515;48.766;9.176;2023-02-20T03:30:13;99426.75;;;8.82;75.46
49611;BME280;35515;48.766;9.176;2023-02-20T03:32:42;99419.66;;;8.81;76.06
49611;BME280;35515;48.766;9.176;2023-02-20T03:35:27;99415.44;;;8.86;75.27
49611;BME280;35515;48.766;9.176;2023-02-20T03:38:13;99431.63;;;8.95;75.08
49611;BME280;35515;48.766;9.176;2023-02-20T03:40:59;99431.63;;;9.03;74.48
49611;BME280;35515;48.766;9.176;2023-02-20T03:43:44;99429.09;;;8.93;74.50
49611;BME280;35515;48.766;9.176;2023-02-20T03:46:16;99440.94;;;8.92;74.71
49611;BME280;35515;48.766;9.176;2023-02-20T03:48:47;99439.22;;;8.91;74.73
49611;BME280;35515;48.766;9.176;2023-02-20T03:51:16;99433.69;;;8.76;75.81
49611;BME280;35515;48.766;9.176;2023-02-20T03:53:43;99441.44;;;8.79;75.13
49611;BME280;35515;48.766;9.176;2023-02-20T03:56:13;99444.66;;;8.75;75.79
49611;BME280;35515;48.766;9.176;2023-02-20T03:58:42;99440.94;;;8.43;77.27
49611;BME280;35515;48.766;9.176;2023-02-20T04:01:13;99436.88;;;8.30;78.37
49611;BME280;35515;48.766;9.176;2023-02-20T04:03:42;99429.97;;;8.52;77.15
49611;BME280;35515;48.766;9.176;2023-02-20T04:06:10;99433.00;;;8.74;75.83
49611;BME280;35515;48.766;9.176;2023-02-20T04:08:38;99433.00;;;8.74;75.83
49611;BME280;35515;48.766;9.176;2023-02-20T04:11:07;99428.47;;;8.75;75.98
49611;BME280;35515;48.766;9.176;2023-02-20T04:13:34;99422.56;;;8.55;76.51
49611;BME280;35515;48.766;9.176;2023-02-20T04:16:02;99423.88;;;8.75;75.58
49611;BME280;35515;48.766;9.176;2023-02-20T04:18:30;99407.84;;;8.82;75.45
49611;BME280;35515;48.766;9.176;2023-02-20T04:20:57;99405.00;;;8.67;75.72
49611;BME280;35515;48.766;9.176;2023-02-20T04:23:25;99411.91;;;8.78;75.35
49611;BME280;35515;48.766;9.176;2023-02-20T04:25:52;99406.50;;;8.78;74.83
49611;BME280;35515;48.766;9.176;2023-02-20T04:28:21;99410.22;;;8.60;75.77
49611;BME280;35515;48.766;9.176;2023-02-20T04:30:48;99413.59;;;8.79;74.92
49611;BME280;35515;48.766;9.176;2023-02-20T04:33:14;99413.78;;;8.69;75.49
49611;BME280;35515;48.766;9.176;2023-02-20T04:35:42;99396.38;;;8.63;75.81
49611;BME280;35515;48.766;9.176;2023-02-20T04:38:09;99406.00;;;8.82;74.43
49611;BME280;35515;48.766;9.176;2023-02-20T04:40:35;99409.72;;;8.48;75.34
49611;BME280;35515;48.766;9.176;2023-02-20T04:43:02;99406.81;;;8.42;75.72
49611;BME280;35515;48.766;9.176;2023-02-20T04:45:28;99405.66;;;8.44;75.46
49611;BME280;35515;48.766;9.176;2023-02-20T04:47:55;99397.91;;;8.58;74.72
49611;BME280;35515;48.766;9.176;2023-02-20T04:50:22;99397.03;;;8.41;75.64
49611;BME280;35515;48.766;9.176;2023-02-20T04:52:50;99400.59;;;8.58;74.56
49611;BME280;35515;48.766;9.176;2023-02-20T04:55:16;99395.19;;;8.58;74.23
49611;BME280;35515;48.766;9.176;2023-02-20T04:57:44;99412.09;;;8.51;74.63
49611;BME280;35515;48.766;9.176;2023-02-20T05:00:11;99423.19;;;8.40;74.94
49611;BME280;35515;48.766;9.176;2023-02-20T05:02:37;99429.25;;;8.17;76.10
49611;BME280;35515;48.766;9.176;2023-02-20T05:05:04;99424.00;;;7.99;77.37
49611;BME280;35515;48.766;9.176;2023-02-20T05:07:31;99424.00;;;7.99;77.62
49611;BME280;35515;48.766;9.176;2023-02-20T05:09:59;99420.63;;;8.06;77.60
49611;BME280;35515;48.766;9.176;2023-02-20T05:12:26;99410.03;;;8.20;76.30
49611;BME280;35515;48.766;9.176;2023-02-20T05:14:52;99410.72;;;8.14;76.54
49611;BME280;35515;48.766;9.176;2023-02-20T05:17:18;99413.06;;;8.26;75.67
49611;BME280;35515;48.766;9.176;2023-02-20T05:19:45;99412.53;;;7.97;76.75
49611;BME280;35515;48.766;9.176;2023-02-20T05:22:11;99413.66;;;7.78;77.94
49611;BME280;35515;48.766;9.176;2023-02-20T05:24:47;99416.16;;;7.63;79.00
49611;BME280;35515;48.766;9.176;2023-02-20T05:27:17;99425.47;;;7.77;78.44
49611;BME280;35515;48.766;9.176;2023-02-20T05:29:44;99420.06;;;7.77;78.37
49611;BME280;35515;48.766;9.176;2023-02-20T05:32:11;99413.63;;;7.62;79.38
49611;BME280;35515;48.766;9.176;2023-02-20T05:34:37;99421.50;;;7.47;80.18
49611;BME280;35515;48.766;9.176;2023-02-20T05:37:03;99418.38;;;7.76;78.80
49611;BME280;35515;48.766;9.176;2023-02-20T05:39:30;99411.22;;;7.50;79.91
49611;BME280;35515;48.766;9.176;2023-02-20T05:41:56;99412.44;;;7.64;79.28
49611;BME280;35515;48.766;9.176;2023-02-20T05:44:24;99412.53;;;7.46;79.96
49611;BME280;35515;48.766;9.176;2023-02-20T05:46:50;99416.28;;;7.53;79.16
49611;BME280;35515;48.766;9.176;2023-02-20T05:49:18;99421.69;;;7.62;79.08
49611;BME280;35515;48.766;9.176;2023-02-20T05:51:44;99409.19;;;7.44;79.45
49611;BME280;35515;48.766;9.176;2023-02-20T05:54:11;99416.88;;;7.31;80.14
49611;BME280;35515;48.766;9.176;2023-02-20T05:56:39;99416.06;;;7.39;80.21
49611;BME280;35515;48.766;9.176;2023-02-20T05:59:06;99416.63;;;7.50;79.29
49611;BME280;35515;48.766;9.176;2023-02-20T06:01:33;99415.13;;;7.64;78.55
49611;BME280;35515;48.766;9.176;2023-02-20T06:04:00;99426.56;;;7.58;78.71
49611;BME280;35515;48.766;9.176;2023-02-20T06:06:31;99432.50;;;7.62;78.62
49611;BME280;35515;48.766;9.176;2023-02-20T06:08:58;99420.03;;;7.69;78.22
49611;BME280;35515;48.766;9.176;2023-02-20T06:11:24;99414.69;;;7.85;77.59
49611;BME280;35515;48.766;9.176;2023-02-20T06:13:50;99418.38;;;7.76;77.70
49611;BME280;35515;48.766;9.176;2023-02-20T06:16:20;99424.22;;;7.63;78.14
49611;BME280;35515;48.766;9.176;2023-02-20T06:18:48;99423.66;;;7.43;78.99
49611;BME280;35515;48.766;9.176;2023-02-20T06:21:15;99421.66;;;7.45;79.22
49611;BME280;35515;48.766;9.176;2023-02-20T06:23:42;99427.69;;;7.39;79.34
49611;BME280;35515;48.766;9.176;2023-02-20T06:26:10;99426.38;;;7.51;78.84
49611;BME280;35515;48.766;9.176;2023-02-20T06:28:36;99421.97;;;7.42;78.99
49611;BME280;35515;48.766;9.176;2023-02-20T06:31:03;99429.94;;;7.52;78.94
49611;BME280;35515;48.766;9.176;2023-02-20T06:33:29;99430.38;;;7.39;79.16
49611;BME280;35515;48.766;9.176;2023-02-20T06:35:57;99434.00;;;7.22;80.42
49611;BME280;35515;48.766;9.176;2023-02-20T06:38:24;99421.53;;;7.20;80.55
49611;BME280;35515;48.766;9.176;2023-02-20T06:40:50;99435.13;;;7.11;80.50
49611;BME280;35515;48.766;9.176;2023-02-20T06:43:17;99424.44;;;7.27;79.73
49611;BME280;35515;48.766;9.176;2023-02-20T06:45:44;99439.16;;;7.41;79.46
49611;BME280;35515;48.766;9.176;2023-02-20T06:48:10;99444.22;;;7.44;78.86
49611;BME280;35515;48.766;9.176;2023-02-20T06:50:38;99451.19;;;7.63;78.20
49611;BME280;35515;48.766;9.176;2023-02-20T06:53:06;99444.94;;;7.55;78.17
49611;BME280;35515;48.766;9.176;2023-02-20T06:55:32;99452.00;;;7.56;78.16
49611;BME280;35515;48.766;9.176;2023-02-20T06:57:59;99443.13;;;7.63;77.81
49611;BME280;35515;48.766;9.176;2023-02-20T07:00:25;99448.63;;;7.45;78.34
49611;BME280;35515;48.766;9.176;2023-02-20T07:02:52;99456.97;;;7.34;79.22
49611;BME280;35515;48.766;9.176;2023-02-20T07:05:18;99465.81;;;7.52;78.17
49611;BME280;35515;48.766;9.176;2023-02-20T07:07:45;99462.38;;;7.34;78.90
49611;BME280;35515;48.766;9.176;2023-02-20T07:10:12;99456.56;;;7.20;79.45
49611;BME280;35515;48.766;9.176;2023-02-20T07:12:39;99459.06;;;7.48;78.35
49611;BME280;35515;48.766;9.176;2023-02-20T07:15:05;99457.66;;;7.36;78.55
49611;BME280;35515;48.766;9.176;2023-02-20T07:17:32;99453.53;;;7.58;78.00
49611;BME280;35515;48.766;9.176;2023-02-20T07:19:58;99465.56;;;7.72;77.39
49611;BME280;35515;48.766;9.176;2023-02-20T07:22:25;99462.00;;;7.63;77.32
49611;BME280;35515;48.766;9.176;2023-02-20T07:24:52;99466.72;;;7.61;77.56
49611;BME280;35515;48.766;9.176;2023-02-20T07:27:19;99462.00;;;7.63;77.85
49611;BME280;35515;48.766;9.176;2023-02-20T07:29:47;99459.47;;;7.62;77.63
49611;BME280;35515;48.766;9.176;2023-02-20T07:32:13;99463.84;;;7.63;77.25
49611;BME280;35515;48.766;9.176;2023-02-20T07:34:44;99460.84;;;7.74;76.54
49611;BME280;35515;48.766;9.176;2023-02-20T07:37:10;99460.72;;;7.84;76.14
49611;BME280;35515;48.766;9.176;2023-02-20T07:39:37;99467.91;;;7.67;77.17
49611;BME280;35515;48.766;9.176;2023-02-20T07:42:03;99464.50;;;7.57;77.69
49611;BME280;35515;48.766;9.176;2023-02-20T07:44:31;99464.28;;;8.01;74.72
49611;BME280;35515;48.766;9.176;2023-02-20T07:46:57;99459.94;;;8.08;74.07
49611;BME280;35515;48.766;9.176;2023-02-20T07:49:24;99460.28;;;8.13;74.06
49611;BME280;35515;48.766;9.176;2023-02-20T07:51:50;99456.91;;;8.11;73.77
49611;BME280;35515;48.766;9.176;2023-02-20T07:54:16;99453.50;;;8.01;74.46
49611;BME280;35515;48.766;9.176;2023-02-20T07:56:43;99450.16;;;8.24;72.88
49611;BME280;35515;48.766;9.176;2023-02-20T07:59:09;99454.72;;;7.98;74.19
49611;BME280;35515;48.766;9.176;2023-02-20T08:01:37;99458.59;;;8.04;74.19
49611;BME280;35515;48.766;9.176;2023-02-20T08:04:03;99448.09;;;8.01;73.79
49611;BME280;35515;48.766;9.176;2023-02-20T08:06:30;99443.41;;;8.11;73.93
49611;BME280;35515;48.766;9.176;2023-02-20T08:08:56;99442.28;;;8.30;72.99
49611;BME280;35515;48.766;9.176;2023-02-20T08:11:22;99438.69;;;8.05;73.93
49611;BME280;35515;48.766;9.176;2023-02-20T08:13:49;99430.97;;;8.35;72.71
49611;BME280;35515;48.766;9.176;2023-02-20T08:16:17;99441.75;;;8.35;72.52
49611;BME280;35515;48.766;9.176;2023-02-20T08:18:45;99431.66;;;8.37;72.12
49611;BME280;35515;48.766;9.176;2023-02-20T08:21:12;99428.25;;;8.27;73.10
49611;BME280;35515;48.766;9.176;2023-02-20T08:23:38;99427.25;;;8.28;72.96
49611;BME280;35515;48.766;9.176;2023-02-20T08:26:04;99427.09;;;8.54;71.45
49611;BME280;35515;48.766;9.176;2023-02-20T08:28:31;99434.38;;;8.62;71.04
49611;BME280;35515;48.766;9.176;2023-02-20T08:30:57;99417.47;;;8.51;71.04
49611;BME280;35515;48.766;9.176;2023-02-20T08:33:23;99421.53;;;8.72;70.31
49611;BME280;35515;48.766;9.176;2023-02-20T08:35:51;99415.78;;;8.67;70.61
49611;BME280;35515;48.766;9.176;2023-02-20T08:38:23;99423.91;;;8.59;71.24
49611;BME280;35515;48.766;9.176;2023-02-20T08:40:50;99427.28;;;8.61;70.66
49611;BME280;35515;48.766;9.176;2023-02-20T08:43:16;99422.06;;;8.51;71.44
49611;BME280;35515;48.766;9.176;2023-02-20T08:45:43;99414.94;;;8.58;71.34
49611;BME280;35515;48.766;9.176;2023-02-20T08:48:09;99413.13;;;8.50;71.32
49611;BME280;35515;48.766;9.176;2023-02-20T08:50:35;99406.69;;;8.51;71.17
49611;BME280;35515;48.766;9.176;2023-02-20T08:53:03;99410.75;;;8.64;71.35
49611;BME280;35515;48.766;9.176;2023-02-20T08:55:29;99413.94;;;8.59;70.86
49611;BME280;35515;48.766;9.176;2023-02-20T08:57:56;99417.13;;;8.71;70.17
49611;BME280;35515;48.766;9.176;2023-02-20T09:00:22;99416.28;;;8.79;69.88
49611;BME280;35515;48.766;9.176;2023-02-20T09:02:48;99414.78;;;8.76;70.13
49611;BME280;35515;48.766;9.176;2023-02-20T09:05:15;99409.06;;;8.63;69.83
49611;BME280;35515;48.766;9.176;2023-02-20T09:07:42;99410.59;;;8.57;70.47
49611;BME280;35515;48.766;9.176;2023-02-20T09:10:10;99405.81;;;8.67;69.89
49611;BME280;35515;48.766;9.176;2023-02-20T09:12:37;99400.09;;;8.70;69.97
49611;BME280;35515;48.766;9.176;2023-02-20T09:15:06;99394.16;;;8.83;68.59
49611;BME280;35515;48.766;9.176;2023-02-20T09:17:32;99402.59;;;8.89;67.86
49611;BME280;35515;48.766;9.176;2023-02-20T09:19:59;99390.44;;;8.84;68.25
49611;BME280;35515;48.766;9.176;2023-02-20T09:22:25;99388.41;;;8.86;68.02
49611;BME280;35515;48.766;9.176;2023-02-20T09:24:53;99386.53;;;8.95;67.35
49611;BME280;35515;48.766;9.176;2023-02-20T09:27:21;99390.09;;;8.96;67.93
49611;BME280;35515;48.766;9.176;2023-02-20T09:29:47;99383.97;;;9.02;68.20
49611;BME280;35515;48.766;9.176;2023-02-20T09:32:13;99386.63;;;9.10;67.06
49611;BME280;35515;48.766;9.176;2023-02-20T09:34:40;99376.50;;;9.12;67.93
49611;BME280;35515;48.766;9.176;2023-02-20T09:37:07;99379.91;;;9.14;67.08
49611;BME280;35515;48.766;9.176;2023-02-20T09:39:33;99371.47;;;9.09;67.87
49611;BME280;35515;48.766;9.176;2023-02-20T09:42:03;99373.44;;;9.24;67.14
49611;BME280;35515;48.766;9.176;2023-02-20T09:44:35;99370.38;;;9.27;66.56
49611;BME280;35515;48.766;9.176;2023-02-20T09:47:07;99364.25;;;9.41;66.00
49611;BME280;35515;48.766;9.176;2023-02-20T09:49:41;99361.00;;;9.46;66.34
49611;BME280;35515;48.766;9.176;2023-02-20T09:52:09;99365.56;;;9.45;65.85
49611;BME280;35515;48.766;9.176;2023-02-20T09:54:38;99368.22;;;9.53;66.34
49611;BME280;35515;48.766;9.176;2023-02-20T09:57:08;99368.50;;;9.67;64.73
49611;BME280;35515;48.766;9.176;2023-02-20T09:59:38;99363.91;;;9.67;64.31
49611;BME280;35515;48.766;9.176;2023-02-20T10:02:10;99362.63;;;9.86;63.33
49611;BME280;35515;48.766;9.176;2023-02-20T10:04:38;99364.66;;;9.84;62.69
49611;BME280;35515;48.766;9.176;2023-02-20T10:07:08;99358.28;;;9.77;62.77
49611;BME280;35515;48.766;9.176;2023-02-20T10:09:40;99350.34;;;9.76;63.51
49611;BME280;35515;48.766;9.176;2023-02-20T10:12:09;99338.47;;;9.77;63.49
49611;BME280;35515;48.766;9.176;2023-02-20T10:14:46;99341.16;;;9.85;63.83
49611;BME280;35515;48.766;9.176;2023-02-20T10:17:20;99335.53;;;10.10;62.19
49611;BME280;35515;48.766;9.176;2023-02-20T10:19:50;99349.47;;;10.07;62.23
49611;BME280;35515;48.766;9.176;2023-02-20T10:22:17;99346.50;;;9.93;62.01
49611;BME280;35515;48.766;9.176;2023-02-20T10:24:49;99346.38;;;9.86;63.23
49611;BME280;35515;48.766;9.176;2023-02-20T10:27:24;99346.03;;;9.90;62.77
49611;BME280;35515;48.766;9.176;2023-02-20T10:29:55;99331.47;;;9.91;62.87
49611;BME280;35515;48.766;9.176;2023-02-20T10:32:23;99340.59;;;9.90;63.10
49611;BME280;35515;48.766;9.176;2023-02-20T10:34:53;99340.00;;;10.02;62.80
49611;BME280;35515;48.766;9.176;2023-02-20T10:37:23;99341.41;;;9.98;62.86
49611;BME280;35515;48.766;9.176;2023-02-20T10:39:53;99340.59;;;9.90;63.03
49611;BME280;35515;48.766;9.176;2023-02-20T10:42:21;99332.84;;;9.86;63.34
49611;BME280;35515;48.766;9.176;2023-02-20T10:44:51;99329.78;;;9.90;63.45
49611;BME280;35515;48.766;9.176;2023-02-20T10:47:21;99336.13;;;9.97;63.18
49611;BME280;35515;48.766;9.176;2023-02-20T10:49:51;99320.75;;;9.97;64.06
49611;BME280;35515;48.766;9.176;2023-02-20T10:52:22;99321.53;;;10.06;63.52
49611;BME280;35515;48.766;9.176;2023-02-20T10:54:50;99314.38;;;10.13;63.13
49611;BME280;35515;48.766;9.176;2023-02-20T10:57:21;99307.28;;;10.12;62.56
49611;BME280;35515;48.766;9.176;2023-02-20T10:59:50;99324.44;;;10.19;62.35
49611;BME280;35515;48.766;9.176;2023-02-20T11:02:25;99313.81;;;10.41;61.95
49611;BME280;35515;48.766;9.176;2023-02-20T11:04:54;99306.34;;;10.43;61.51
49611;BME280;35515;48.766;9.176;2023-02-20T11:07:22;99312.31;;;10.39;61.86
49611;BME280;35515;48.766;9.176;2023-02-20T11:09:49;99311.94;;;10.42;62.03
49611;BME280;35515;48.766;9.176;2023-02-20T11:12:18;99300.19;;;10.49;61.37
49611;BME280;35515;48.766;9.176;2023-02-20T11:14:47;99290.94;;;10.44;61.91
49611;BME280;35515;48.766;9.176;2023-02-20T11:17:16;99297.00;;;10.46;61.78
49611;BME280;35515;48.766;9.176;2023-02-20T11:19:46;99291.88;;;10.66;60.12
49611;BME280;35515;48.766;9.176;2023-02-20T11:22:13;99288.16;;;10.67;60.21
49611;BME280;35515;48.766;9.176;2023-02-20T11:24:40;99283.66;;;10.74;59.43
49611;BME280;35515;48.766;9.176;2023-02-20T11:27:08;99290.59;;;10.92;57.68
49611;BME280;35515;48.766;9.176;2023-02-20T11:32:29;99268.22;;;11.04;56.82
49611;BME280;35515;48.766;9.176;2023-02-20T11:37:46;99267.94;;;11.14;58.00
49611;BME280;35515;48.766;9.176;2023-02-20T11:40:14;99272.13;;;11.17;58.42
49611;BME280;35515;48.766;9.176;2023-02-20T11:42:40;99254.09;;;11.09;59.23
49611;BME280;35515;48.766;9.176;2023-02-20T11:45:11;99248.41;;;11.04;59.41
49611;BME280;35515;48.766;9.176;2023-02-20T11:47:38;99237.94;;;11.01;59.94
49611;BME280;35515;48.766;9.176;2023-02-20T11:50:08;99251.56;;;11.08;59.78
49611;BME280;35515;48.766;9.176;2023-02-20T11:52:35;99241.44;;;11.16;59.38
49611;BME280;35515;48.766;9.176;2023-02-20T11:55:09;99235.63;;;11.19;59.04
49611;BME280;35515;48.766;9.176;2023-02-20T11:57:37;99235.28;;;11.23;58.24
49611;BME280;35515;48.766;9.176;2023-02-20T12:00:11;99227.06;;;11.16;59.18
49611;BME280;35515;48.766;9.176;2023-02-20T12:02:46;99223.53;;;11.37;58.24
49611;BME280;35515;48.766;9.176;2023-02-20T12:05:13;99218.47;;;11.34;57.89
49611;BME280;35515;48.766;9.176;2023-02-20T12:07:43;99215.41;;;11.37;58.41
49611;BME280;35515;48.766;9.176;2023-02-20T12:12:55;99201.03;;;11.43;58.37
49611;BME280;35515;48.766;9.176;2023-02-20T12:15:23;99201.69;;;11.45;58.42
49611;BME280;35515;48.766;9.176;2023-02-20T12:20:33;99180.25;;;11.50;58.03
49611;BME280;35515;48.766;9.176;2023-02-20T12:23:03;99181.09;;;11.51;57.80
49611;BME280;35515;48.766;9.176;2023-02-20T12:25:36;99182.38;;;11.55;57.48
49611;BME280;35515;48.766;9.176;2023-02-20T12:28:13;99171.13;;;11.58;56.88
49611;BME280;35515;48.766;9.176;2023-02-20T12:30:47;99169.72;;;11.62;56.72
49611;BME280;35515;48.766;9.176;2023-02-20T12:33:27;99166.06;;;11.77;55.33
49611;BME280;35515;48.766;9.176;2023-02-20T12:35:57;99165.59;;;11.95;54.00
49611;BME280;35515;48.766;9.176;2023-02-20T12:38:28;99163.97;;;12.00;53.26
49611;BME280;35515;48.766;9.176;2023-02-20T12:41:05;99150.69;;;12.12;52.59
49611;BME280;35515;48.766;9.176;2023-02-20T12:43:37;99142.78;;;12.17;52.07
49611;BME280;35515;48.766;9.176;2023-02-20T12:46:08;99135.47;;;12.18;52.24
49611;BME280;35515;48.766;9.176;2023-02-20T12:48:37;99126.06;;;12.20;51.91
49611;BME280;35515;48.766;9.176;2023-02-20T12:51:09;99120.19;;;12.10;52.91
49611;BME280;35515;48.766;9.176;2023-02-20T12:53:43;99118.41;;;12.31;51.41
49611;BME280;35515;48.766;9.176;2023-02-20T12:56:17;99119.69;;;12.35;51.44
49611;BME280;35515;48.766;9.176;2023-02-20T12:58:48;99116.50;;;12.31;51.20
49611;BME280;35515;48.766;9.176;2023-02-20T13:01:18;99114.47;;;12.40;51.04
49611;BME280;35515;48.766;9.176;2023-02-20T13:03:48;99103.63;;;12.47;50.73
49611;BME280;35515;48.766;9.176;2023-02-20T13:06:20;99107.38;;;12.46;50.50
49611;BME280;35515;48.766;9.176;2023-02-20T13:08:53;99101.94;;;12.46;51.35
49611;BME280;35515;48.766;9.176;2023-02-20T13:11:23;99092.78;;;12.53;50.85
49611;BME280;35515;48.766;9.176;2023-02-20T13:13:55;99096.53;;;12.52;51.02
49611;BME280;35515;48.766;9.176;2023-02-20T13:16:29;99076.53;;;12.67;50.20
49611;BME280;35515;48.766;9.176;2023-02-20T13:18:58;99070.50;;;12.71;50.19
49611;BME280;35515;48.766;9.176;2023-02-20T13:21:29;99064.41;;;12.76;49.29
49611;BME280;35515;48.766;9.176;2023-02-20T13:26:45;99059.81;;;12.77;49.73
49611;BME280;35515;48.766;9.176;2023-02-20T13:29:14;99051.66;;;12.83;49.19
49611;BME280;35515;48.766;9.176;2023-02-20T13:31:43;99050.41;;;12.79;49.32
49611;BME280;35515;48.766;9.176;2023-02-20T13:34:25;99033.50;;;12.91;47.82
49611;BME280;35515;48.766;9.176;2023-02-20T13:36:52;99034.13;;;12.93;46.88